createdAt,value
2023-04-18T00:00:50.492Z,81.76
2023-04-18T00:03:18.566Z,81.47
2023-04-18T00:05:48.677Z,81.92
2023-04-18T00:08:17.076Z,82.02
2023-04-18T00:10:44.964Z,81.65
2023-04-18T00:13:12.929Z,82.00
2023-04-18T00:15:43.897Z,81.20
2023-04-18T00:18:21.467Z,80.82
2023-04-18T00:20:50.652Z,81.81
2023-04-18T00:23:18.736Z,81.61
2023-04-18T00:25:46.510Z,80.85
2023-04-18T00:28:14.404Z,81.21
2023-04-18T00:30:42.320Z,81.18
2023-04-18T00:33:10.219Z,81.18
2023-04-18T00:35:38.235Z,81.05
2023-04-18T00:38:07.486Z,80.30
2023-04-18T00:40:35.619Z,80.87
2023-04-18T00:43:03.738Z,80.66
2023-04-18T00:45:31.713Z,81.19
2023-04-18T00:47:59.585Z,80.69
2023-04-18T00:50:28.072Z,80.46
2023-04-18T00:52:56.229Z,80.56
2023-04-18T00:55:25.905Z,80.15
2023-04-18T00:57:53.795Z,81.24
2023-04-18T01:00:21.868Z,81.05
2023-04-18T01:02:53.285Z,80.94
2023-04-18T01:05:21.644Z,81.34
2023-04-18T01:07:50.597Z,81.11
2023-04-18T01:10:18.584Z,81.27
2023-04-18T01:12:47.797Z,81.67
2023-04-18T01:15:15.975Z,81.06
2023-04-18T01:17:43.885Z,81.18
2023-04-18T01:23:54.086Z,81.14
2023-04-18T01:26:23.374Z,81.76
2023-04-18T01:28:51.368Z,81.27
2023-04-18T01:31:19.246Z,82.14
2023-04-18T01:33:47.156Z,81.69
2023-04-18T01:36:15.480Z,81.16
2023-04-18T01:38:43.354Z,80.97
2023-04-18T01:41:11.193Z,81.75
2023-04-18T01:43:40.331Z,81.19
2023-04-18T01:46:08.187Z,81.58
2023-04-18T01:48:36.072Z,81.99
2023-04-18T01:51:03.937Z,81.46
2023-04-18T01:53:31.946Z,81.73
2023-04-18T01:55:59.779Z,81.30
2023-04-18T01:58:27.677Z,82.25
2023-04-18T02:00:58.313Z,81.83
2023-04-18T02:03:26.833Z,81.94
2023-04-18T02:05:55.073Z,81.91
2023-04-18T02:08:23.272Z,81.51
2023-04-18T02:10:51.119Z,81.37
2023-04-18T02:13:19.132Z,81.75
2023-04-18T02:15:47.083Z,81.27
2023-04-18T02:18:17.444Z,81.18
2023-04-18T02:20:45.674Z,81.66
2023-04-18T02:23:13.506Z,81.43
2023-04-18T02:25:41.415Z,81.57
2023-04-18T02:28:09.213Z,80.97
2023-04-18T02:30:37.110Z,81.32
2023-04-18T02:33:05.313Z,82.01
2023-04-18T02:35:35.379Z,81.65
2023-04-18T02:38:03.353Z,80.72
2023-04-18T02:40:31.263Z,81.34
2023-04-18T02:42:59.332Z,81.49
2023-04-18T02:45:27.402Z,81.49
2023-04-18T02:47:56.679Z,81.60
2023-04-18T02:50:25.099Z,81.66
2023-04-18T02:52:54.545Z,81.72
2023-04-18T02:55:23.044Z,82.26
2023-04-18T02:57:50.959Z,82.22
2023-04-18T03:00:19.739Z,82.13
2023-04-18T03:02:47.631Z,81.52
2023-04-18T03:05:15.508Z,82.05
2023-04-18T03:07:43.349Z,83.25
2023-04-18T03:10:12.806Z,82.52
2023-04-18T03:12:40.621Z,82.24
2023-04-18T03:15:09.414Z,82.52
2023-04-18T03:17:37.562Z,82.03
2023-04-18T03:20:06.324Z,82.74
2023-04-18T03:22:34.172Z,82.77
2023-04-18T03:25:02.042Z,81.79
2023-04-18T03:27:31.317Z,82.59
2023-04-18T03:29:59.160Z,82.32
2023-04-18T03:32:27.043Z,82.14
2023-04-18T03:34:55.595Z,82.45
2023-04-18T03:37:23.456Z,82.13
2023-04-18T03:39:51.328Z,82.16
2023-04-18T03:42:19.215Z,82.00
2023-04-18T03:44:48.414Z,81.87
2023-04-18T03:47:16.963Z,81.97
2023-04-18T03:49:45.066Z,82.04
2023-04-18T03:52:13.245Z,81.19
2023-04-18T03:54:41.281Z,82.04
2023-04-18T03:57:09.128Z,82.28
2023-04-18T03:59:37.031Z,81.84
2023-04-18T04:02:06.262Z,81.73
2023-04-18T04:04:34.260Z,81.60
2023-04-18T04:07:02.533Z,81.77
2023-04-18T04:09:30.419Z,81.45
2023-04-18T04:11:58.381Z,80.65
2023-04-18T04:14:26.183Z,81.23
2023-04-18T04:16:54.179Z,81.70
2023-04-18T04:19:23.305Z,81.00
2023-04-18T04:21:51.440Z,81.23
2023-04-18T04:24:20.518Z,81.94
2023-04-18T04:26:48.795Z,81.28
2023-04-18T04:29:16.969Z,81.93
2023-04-18T04:31:45.038Z,81.40
2023-04-18T04:34:13.130Z,80.52
2023-04-18T04:36:43.220Z,81.29
2023-04-18T04:39:11.831Z,81.36
2023-04-18T04:41:40.491Z,80.57
2023-04-18T04:44:09.582Z,80.82
2023-04-18T04:46:40.385Z,79.96
2023-04-18T04:49:08.216Z,79.93
2023-04-18T04:51:36.057Z,80.18
2023-04-18T04:54:05.512Z,79.09
2023-04-18T04:56:33.846Z,79.87
2023-04-18T04:59:02.042Z,79.15
2023-04-18T05:01:30.027Z,80.04
2023-04-18T05:03:58.053Z,79.19
2023-04-18T05:06:26.614Z,78.11
2023-04-18T05:08:56.005Z,79.09
2023-04-18T05:11:25.299Z,78.90
2023-04-18T05:13:53.212Z,78.71
2023-04-18T05:16:21.166Z,78.12
2023-04-18T05:18:49.187Z,77.55
2023-04-18T05:21:17.060Z,77.87
2023-04-18T05:23:44.873Z,77.77
2023-04-18T05:26:12.800Z,77.65
2023-04-18T05:28:42.454Z,77.30
2023-04-18T05:31:10.686Z,77.06
2023-04-18T05:33:38.593Z,76.73
2023-04-18T05:36:07.948Z,76.10
2023-04-18T05:38:35.921Z,75.20
2023-04-18T05:41:03.787Z,73.12
2023-04-18T05:43:31.669Z,73.31
2023-04-18T05:46:00.884Z,73.31
2023-04-18T05:48:28.801Z,72.41
2023-04-18T05:50:56.654Z,73.07
2023-04-18T05:53:24.746Z,72.83
2023-04-18T05:55:52.640Z,72.82
2023-04-18T05:58:20.513Z,72.63
2023-04-18T06:00:48.499Z,72.86
2023-04-18T06:03:17.938Z,73.76
2023-04-18T06:05:46.164Z,73.09
2023-04-18T06:08:14.167Z,73.02
2023-04-18T06:10:42.113Z,73.12
2023-04-18T06:13:15.492Z,72.90
2023-04-18T06:15:43.348Z,72.47
2023-04-18T06:18:11.338Z,72.84
2023-04-18T06:20:42.183Z,72.91
2023-04-18T06:23:10.003Z,73.06
2023-04-18T06:25:37.981Z,72.39
2023-04-18T06:28:06.229Z,72.23
2023-04-18T06:30:34.082Z,71.42
2023-04-18T06:33:02.156Z,71.05
2023-04-18T06:35:31.951Z,70.87
2023-04-18T06:38:03.928Z,71.25
2023-04-18T06:40:31.803Z,71.08
2023-04-18T06:42:59.783Z,71.27
2023-04-18T06:45:27.725Z,72.08
2023-04-18T06:47:55.761Z,71.71
2023-04-18T06:50:23.784Z,71.86
2023-04-18T06:52:51.672Z,72.23
2023-04-18T06:55:21.387Z,71.74
2023-04-18T06:57:49.465Z,71.87
2023-04-18T07:00:18.143Z,71.76
2023-04-18T07:02:46.587Z,71.98
2023-04-18T07:05:14.969Z,72.01
2023-04-18T07:07:42.953Z,71.98
2023-04-18T07:10:12.083Z,71.19
2023-04-18T07:12:41.314Z,71.40
2023-04-18T07:15:10.919Z,71.50
2023-04-18T07:17:38.868Z,71.18
2023-04-18T07:20:08.122Z,70.10
2023-04-18T07:22:35.957Z,70.68
2023-04-18T07:25:04.035Z,70.21
2023-04-18T07:27:31.892Z,70.06
2023-04-18T07:30:01.212Z,69.90
2023-04-18T07:32:29.433Z,69.10
2023-04-18T07:34:59.298Z,67.55
2023-04-18T07:37:27.460Z,65.74
2023-04-18T07:39:55.307Z,64.03
2023-04-18T07:42:23.232Z,63.28
2023-04-18T07:44:51.115Z,63.45
2023-04-18T07:47:22.237Z,62.15
2023-04-18T07:49:50.916Z,60.55
2023-04-18T07:52:19.036Z,60.33
2023-04-18T07:54:46.947Z,59.03
2023-04-18T07:57:14.861Z,58.81
2023-04-18T07:59:42.739Z,58.29
2023-04-18T08:02:10.676Z,56.57
2023-04-18T08:04:40.014Z,55.00
2023-04-18T08:07:07.952Z,52.75
2023-04-18T08:09:35.969Z,50.57
2023-04-18T08:12:03.852Z,49.59
2023-04-18T08:14:31.859Z,46.37
2023-04-18T08:16:59.667Z,44.49
2023-04-18T08:19:27.577Z,42.07
2023-04-18T08:22:08.655Z,38.95
2023-04-18T08:24:36.533Z,36.00
2023-04-18T08:27:04.600Z,33.21
2023-04-18T08:29:32.500Z,30.46
2023-04-18T08:32:00.570Z,28.43
2023-04-18T08:34:30.028Z,27.61
2023-04-18T08:36:59.234Z,26.28
2023-04-18T08:39:27.086Z,25.89
2023-04-18T08:41:58.971Z,24.35
2023-04-18T08:44:28.439Z,24.70
2023-04-18T08:46:56.584Z,25.11
2023-04-18T08:49:25.743Z,25.02
2023-04-18T08:51:54.039Z,26.18
2023-04-18T08:54:24.637Z,26.96
2023-04-18T08:57:05.949Z,27.08
2023-04-18T08:59:35.765Z,28.12
2023-04-18T09:02:05.529Z,28.85
2023-04-18T09:04:36.139Z,29.46
2023-04-18T09:07:05.334Z,30.13
2023-04-18T09:09:48.173Z,31.91
2023-04-18T09:12:18.421Z,33.20
2023-04-18T09:14:48.547Z,34.75
2023-04-18T09:17:31.637Z,36.15
2023-04-18T09:20:00.453Z,35.29
2023-04-18T09:22:46.297Z,34.44
2023-04-18T09:25:26.171Z,32.11
2023-04-18T09:27:54.288Z,31.67
2023-04-18T09:30:36.906Z,31.79
2023-04-18T09:33:07.692Z,32.19
2023-04-18T09:35:35.951Z,32.71
2023-04-18T09:38:03.917Z,33.89
2023-04-18T09:40:33.469Z,35.80
2023-04-18T09:43:01.784Z,36.39
2023-04-18T09:45:29.623Z,35.86
2023-04-18T09:47:57.664Z,34.60
2023-04-18T09:50:25.701Z,32.78
2023-04-18T09:52:55.638Z,31.36
2023-04-18T09:55:23.768Z,31.26
2023-04-18T09:57:55.018Z,30.83
2023-04-18T10:00:26.477Z,30.52
2023-04-18T10:02:59.293Z,28.84
2023-04-18T10:05:29.289Z,29.09
2023-04-18T10:07:57.915Z,29.73
2023-04-18T10:10:26.371Z,31.96
2023-04-18T10:12:57.610Z,35.14
2023-04-18T10:15:27.445Z,37.62
2023-04-18T10:20:29.984Z,42.47
2023-04-18T10:22:59.046Z,43.90
2023-04-18T10:25:49.143Z,45.71
2023-04-18T10:28:21.014Z,46.81
2023-04-18T10:30:54.874Z,47.72
2023-04-18T10:33:32.148Z,48.25
2023-04-18T10:36:02.866Z,48.97
2023-04-18T10:38:31.100Z,48.93
2023-04-18T10:41:16.793Z,48.77
2023-04-18T10:44:15.925Z,47.73
2023-04-18T10:47:05.363Z,46.82
2023-04-18T10:49:33.517Z,46.33
2023-04-18T10:52:02.879Z,46.15
2023-04-18T10:54:38.970Z,47.08
2023-04-18T10:57:09.018Z,47.63
2023-04-18T10:59:39.949Z,48.21
2023-04-18T11:02:20.480Z,48.71
2023-04-18T11:04:52.995Z,49.33
2023-04-18T11:07:21.219Z,49.97
2023-04-18T11:09:55.469Z,50.44
2023-04-18T11:12:23.948Z,50.68
2023-04-18T11:14:54.475Z,50.48
2023-04-18T11:17:24.546Z,50.10
2023-04-18T11:20:00.405Z,49.41
2023-04-18T11:22:29.781Z,48.94
2023-04-18T11:25:01.814Z,48.88
2023-04-18T11:27:30.875Z,48.69
2023-04-18T11:30:00.177Z,48.47
2023-04-18T11:32:28.211Z,48.74
2023-04-18T11:34:56.817Z,48.98
2023-04-18T11:37:24.773Z,49.79
2023-04-18T11:39:54.267Z,49.77
2023-04-18T11:42:22.375Z,49.73
2023-04-18T11:44:50.195Z,50.03
2023-04-18T11:47:27.214Z,50.49
2023-04-18T11:49:59.291Z,50.46
2023-04-18T11:52:28.595Z,50.87
2023-04-18T11:54:57.088Z,51.38
2023-04-18T11:57:26.512Z,50.94
2023-04-18T11:59:56.293Z,51.19
2023-04-18T12:02:27.697Z,50.44
2023-04-18T12:04:58.297Z,50.39
2023-04-18T12:07:34.858Z,50.16
2023-04-18T12:10:03.144Z,50.40
2023-04-18T12:12:31.122Z,50.88
2023-04-18T12:15:00.517Z,51.08
2023-04-18T12:17:30.096Z,50.86
2023-04-18T12:20:02.191Z,51.15
2023-04-18T12:22:42.015Z,50.87
2023-04-18T12:25:24.346Z,50.59
2023-04-18T12:27:57.978Z,50.31
2023-04-18T12:30:28.241Z,49.90
2023-04-18T12:32:58.996Z,49.40
2023-04-18T12:35:27.280Z,49.01
2023-04-18T12:37:56.868Z,48.79
2023-04-18T12:40:26.462Z,48.14
2023-04-18T12:42:55.451Z,48.26
2023-04-18T12:45:24.723Z,48.30
2023-04-18T12:47:53.689Z,48.23
2023-04-18T12:50:25.067Z,48.33
2023-04-18T12:52:54.690Z,48.14
2023-04-18T12:55:23.036Z,48.22
2023-04-18T12:57:54.575Z,48.09
2023-04-18T13:00:23.876Z,47.80
2023-04-18T13:02:52.690Z,47.51
2023-04-18T13:05:24.368Z,47.01
2023-04-18T13:07:58.687Z,46.33
2023-04-18T13:10:33.132Z,46.82
2023-04-18T13:13:01.062Z,46.64
2023-04-18T13:15:29.050Z,46.99
2023-04-18T13:17:57.531Z,46.89
2023-04-18T13:20:27.084Z,47.67
2023-04-18T13:22:55.112Z,47.84
2023-04-18T13:25:23.216Z,47.60
2023-04-18T13:27:51.942Z,47.54
2023-04-18T13:30:20.312Z,47.30
2023-04-18T13:32:48.654Z,47.37
2023-04-18T13:35:17.185Z,46.98
2023-04-18T13:37:47.021Z,46.96
2023-04-18T13:40:15.788Z,46.78
2023-04-18T13:42:44.754Z,46.70
2023-04-18T13:45:13.365Z,46.24
2023-04-18T13:47:41.460Z,46.28
2023-04-18T13:50:10.958Z,46.45
2023-04-18T13:52:38.927Z,46.81
2023-04-18T13:55:10.590Z,46.65
2023-04-18T13:57:38.497Z,47.29
2023-04-18T14:00:09.296Z,47.32
2023-04-18T14:02:37.293Z,47.43
2023-04-18T14:05:05.992Z,46.96
2023-04-18T14:07:34.137Z,46.86
2023-04-18T14:10:02.210Z,47.55
2023-04-18T14:12:34.247Z,47.31
2023-04-18T14:15:02.636Z,47.50
2023-04-18T14:17:31.320Z,47.38
2023-04-18T14:20:00.143Z,47.35
2023-04-18T14:22:31.295Z,47.17
2023-04-18T14:24:59.327Z,47.23
2023-04-18T14:27:27.840Z,46.91
2023-04-18T14:29:57.250Z,46.12
2023-04-18T14:32:25.535Z,45.68
2023-04-18T14:34:53.674Z,45.42
2023-04-18T14:37:22.319Z,45.34
2023-04-18T14:39:50.225Z,45.47
2023-04-18T14:42:18.364Z,45.56
2023-04-18T14:44:46.334Z,45.39
2023-04-18T14:47:15.976Z,45.95
2023-04-18T14:49:43.925Z,45.67
2023-04-18T14:52:11.788Z,45.48
2023-04-18T14:54:39.715Z,45.32
2023-04-18T14:57:08.430Z,45.24
2023-04-18T14:59:36.339Z,45.20
2023-04-18T15:02:04.321Z,45.37
2023-04-18T15:04:33.781Z,44.85
2023-04-18T15:07:04.032Z,44.95
2023-04-18T15:09:31.987Z,45.33
2023-04-18T15:12:00.391Z,45.39
2023-04-18T15:14:28.234Z,45.48
2023-04-18T15:16:56.931Z,45.44
2023-04-18T15:19:25.092Z,45.09
2023-04-18T15:21:54.397Z,45.65
2023-04-18T15:24:22.414Z,45.52
2023-04-18T15:26:50.879Z,45.12
2023-04-18T15:29:18.926Z,45.24
2023-04-18T15:31:47.121Z,44.47
2023-04-18T15:34:15.150Z,44.59
2023-04-18T15:36:43.302Z,44.01
2023-04-18T15:39:13.239Z,43.88
2023-04-18T15:41:42.148Z,44.28
2023-04-18T15:44:10.120Z,43.96
2023-04-18T15:46:38.069Z,43.76
2023-04-18T15:49:06.630Z,43.58
2023-04-18T15:51:34.642Z,43.99
2023-04-18T15:54:02.748Z,44.18
2023-04-18T15:56:33.619Z,44.50
2023-04-18T15:59:03.485Z,44.06
2023-04-18T16:01:31.416Z,44.54
2023-04-18T16:04:02.786Z,44.68
2023-04-18T16:06:31.309Z,44.63
2023-04-18T16:08:59.741Z,45.34
2023-04-18T16:11:27.931Z,45.17
2023-04-18T16:13:57.378Z,45.30
2023-04-18T16:16:25.360Z,45.51
2023-04-18T16:18:53.407Z,45.71
2023-04-18T16:21:21.257Z,45.67
2023-04-18T16:23:49.929Z,45.84
2023-04-18T16:26:17.830Z,45.74
2023-04-18T16:28:45.820Z,46.32
2023-04-18T16:31:15.421Z,46.44
2023-04-18T16:33:45.150Z,46.33
2023-04-18T16:36:13.348Z,46.17
2023-04-18T16:38:41.612Z,46.62
2023-04-18T16:41:09.599Z,46.74
2023-04-18T16:43:38.354Z,46.65
2023-04-18T16:46:06.575Z,46.82
2023-04-18T16:48:37.978Z,47.07
2023-04-18T16:51:06.919Z,47.28
2023-04-18T16:53:34.920Z,47.14
2023-04-18T16:56:03.455Z,47.55
2023-04-18T16:58:31.519Z,47.37
2023-04-18T17:00:59.319Z,47.80
2023-04-18T17:03:27.539Z,47.76
2023-04-18T17:05:57.029Z,47.55
2023-04-18T17:08:25.944Z,48.11
2023-04-18T17:10:54.157Z,48.47
2023-04-18T17:13:22.493Z,48.00
2023-04-18T17:15:50.628Z,47.96
2023-04-18T17:18:18.622Z,48.70
2023-04-18T17:20:46.469Z,48.71
2023-04-18T17:23:15.733Z,48.81
2023-04-18T17:25:43.602Z,48.41
2023-04-18T17:28:11.963Z,48.52
2023-04-18T17:30:42.151Z,48.84
2023-04-18T17:33:11.360Z,48.81
2023-04-18T17:35:42.163Z,48.86
2023-04-18T17:38:10.771Z,49.21
2023-04-18T17:40:40.732Z,49.22
2023-04-18T17:43:08.879Z,49.53
2023-04-18T17:45:37.355Z,49.43
2023-04-18T17:48:06.155Z,49.37
2023-04-18T17:50:37.041Z,49.51
2023-04-18T17:53:05.131Z,49.74
2023-04-18T17:55:33.008Z,49.83
2023-04-18T17:58:02.180Z,50.28
2023-04-18T18:00:31.280Z,49.56
2023-04-18T18:03:01.365Z,49.86
2023-04-18T18:05:30.287Z,49.51
2023-04-18T18:07:58.406Z,49.49
2023-04-18T18:10:26.688Z,49.85
2023-04-18T18:12:54.474Z,49.63
2023-04-18T18:15:24.522Z,49.23
2023-04-18T18:17:52.937Z,49.41
2023-04-18T18:20:21.308Z,49.33
2023-04-18T18:22:49.394Z,49.66
2023-04-18T18:25:19.969Z,49.74
2023-04-18T18:27:48.403Z,49.80
2023-04-18T18:30:17.282Z,49.56
2023-04-18T18:32:46.564Z,49.63
2023-04-18T18:35:14.458Z,50.25
2023-04-18T18:37:42.440Z,49.58
2023-04-18T18:40:11.172Z,49.62
2023-04-18T18:42:39.146Z,49.70
2023-04-18T18:45:08.324Z,49.92
2023-04-18T18:47:38.994Z,49.68
2023-04-18T18:50:10.000Z,49.86
2023-04-18T18:52:40.822Z,50.10
2023-04-18T18:55:09.849Z,49.86
2023-04-18T18:57:38.320Z,50.21
2023-04-18T19:00:09.444Z,50.09
2023-04-18T19:02:38.118Z,50.03
2023-04-18T19:05:07.867Z,49.73
2023-04-18T19:07:37.221Z,49.56
2023-04-18T19:10:05.927Z,49.67
2023-04-18T19:12:33.979Z,50.05
2023-04-18T19:15:02.114Z,49.48
2023-04-18T19:17:31.120Z,50.13
2023-04-18T19:20:01.364Z,50.35
2023-04-18T19:22:29.586Z,50.40
2023-04-18T19:25:00.763Z,50.31
2023-04-18T19:27:28.809Z,49.87
2023-04-18T19:29:56.996Z,50.03
2023-04-18T19:32:24.979Z,50.08
2023-04-18T19:34:52.987Z,50.64
2023-04-18T19:37:21.193Z,50.27
2023-04-18T19:39:49.226Z,50.63
2023-04-18T19:42:18.529Z,50.79
2023-04-18T19:44:46.708Z,50.96
2023-04-18T19:47:14.676Z,50.50
2023-04-18T19:49:42.641Z,50.74
2023-04-18T19:52:10.517Z,50.70
2023-04-18T19:54:38.496Z,50.73
2023-04-18T19:57:07.616Z,50.97
2023-04-18T19:59:37.057Z,50.76
2023-04-18T20:02:06.354Z,50.99
2023-04-18T20:04:36.714Z,50.98
2023-04-18T20:07:04.929Z,50.55
2023-04-18T20:09:32.958Z,50.80
2023-04-18T20:12:02.008Z,50.82
2023-04-18T20:14:30.640Z,50.82
2023-04-18T20:16:59.831Z,51.03
2023-04-18T20:19:29.860Z,51.08
2023-04-18T20:21:58.232Z,50.84
2023-04-18T20:24:28.049Z,51.20
2023-04-18T20:26:59.075Z,51.85
2023-04-18T20:29:27.720Z,52.16
2023-04-18T20:31:56.174Z,52.39
2023-04-18T20:34:26.137Z,53.08
2023-04-18T20:36:54.172Z,52.67
2023-04-18T20:39:23.194Z,52.96
2023-04-18T20:41:51.654Z,53.49
2023-04-18T20:44:21.944Z,53.42
2023-04-18T20:46:49.920Z,53.75
2023-04-18T20:49:18.187Z,53.83
2023-04-18T20:51:47.634Z,54.31
2023-04-18T20:54:18.130Z,54.31
2023-04-18T20:56:45.997Z,54.25
2023-04-18T20:59:14.030Z,54.78
2023-04-18T21:01:42.133Z,54.81
2023-04-18T21:04:10.706Z,54.88
2023-04-18T21:06:38.738Z,55.41
2023-04-18T21:09:08.925Z,55.26
2023-04-18T21:11:36.981Z,55.44
2023-04-18T21:14:06.790Z,55.75
2023-04-18T21:16:35.430Z,55.57
2023-04-18T21:19:03.438Z,55.66
2023-04-18T21:21:31.658Z,56.04
2023-04-18T21:23:59.499Z,56.02
2023-04-18T21:26:28.830Z,56.33
2023-04-18T21:28:58.568Z,56.26
2023-04-18T21:31:27.388Z,56.46
2023-04-18T21:33:56.067Z,56.71
2023-04-18T21:36:26.549Z,56.29
2023-04-18T21:38:54.882Z,56.56
2023-04-18T21:41:23.275Z,56.43
2023-04-18T21:43:52.866Z,56.40
2023-04-18T21:46:21.088Z,56.25
2023-04-18T21:48:49.371Z,56.49
2023-04-18T21:51:18.123Z,56.78
2023-04-18T21:53:46.218Z,56.94
2023-04-18T21:56:14.166Z,56.96
2023-04-18T21:58:42.323Z,57.01
2023-04-18T22:01:11.659Z,57.17
2023-04-18T22:03:39.813Z,56.87
2023-04-18T22:06:07.901Z,57.15
2023-04-18T22:08:36.120Z,57.25
2023-04-18T22:11:04.808Z,57.29
2023-04-18T22:13:33.913Z,57.04
2023-04-18T22:16:03.543Z,56.95
2023-04-18T22:18:34.381Z,57.35
2023-04-18T22:21:03.514Z,57.33
2023-04-18T22:23:31.701Z,57.45
2023-04-18T22:25:59.609Z,57.49
2023-04-18T22:28:28.188Z,57.48
2023-04-18T22:30:56.189Z,57.65
2023-04-18T22:33:24.137Z,58.00
2023-04-18T22:35:54.263Z,58.11
2023-04-18T22:38:22.105Z,58.34
2023-04-18T22:40:49.980Z,58.44
2023-04-18T22:43:22.592Z,58.35
2023-04-18T22:45:51.317Z,59.14
2023-04-18T22:48:19.357Z,58.89
2023-04-18T22:50:47.367Z,59.71
2023-04-18T22:53:17.149Z,59.69
2023-04-18T22:55:45.942Z,59.43
2023-04-18T22:58:14.294Z,59.68
2023-04-18T23:00:42.117Z,59.61
2023-04-18T23:03:10.259Z,59.44
2023-04-18T23:05:38.272Z,59.74
2023-04-18T23:08:07.002Z,59.95
2023-04-18T23:10:36.479Z,60.09
2023-04-18T23:13:04.347Z,60.65
2023-04-18T23:15:32.276Z,60.72
2023-04-18T23:18:00.338Z,60.66
2023-04-18T23:20:28.209Z,60.57
2023-04-18T23:22:56.171Z,60.54
2023-04-18T23:25:24.140Z,60.32
2023-04-18T23:27:53.387Z,60.75
2023-04-18T23:30:21.213Z,60.39
2023-04-18T23:32:49.094Z,60.92
2023-04-18T23:35:16.996Z,61.57
2023-04-18T23:37:44.883Z,61.72
2023-04-18T23:40:12.662Z,62.55
2023-04-18T23:42:40.560Z,62.74
2023-04-18T23:45:10.653Z,62.69
2023-04-18T23:47:38.427Z,63.05
2023-04-18T23:50:07.739Z,63.56
2023-04-18T23:52:35.538Z,63.60
2023-04-18T23:55:03.678Z,63.35
2023-04-18T23:57:31.441Z,63.94
2023-04-18T23:59:59.300Z,64.24
